Ocean Bluff, Massachusetts
Current Conditions -  °F | °C
As of 8:52 AM on Saturday 25 Oct 2014 (Local Time) from KPYM Reporting Station
Clear Clear  
Wind Chill: 50°   Ceiling: Unl
Heat Index: 50°   Visibility: 10mi
Dew Point: 42°   Wind: 8mph
Humidity: 74%   Direction: 270°W
Pressure: 29.77"   Gusts: NA
Location:  42.1°N, 70.65°W
Report Text: KPYM 251252Z AUTO 27007KT 10SM CLR 10/06 A2977 RMK AO2 SLP080 T01000056
Loading
Personal Weather Stations






























Interactive Weather Map
Tropical Storm Tracking
New forecast layout! Learn more

10-Day Weather Forecast

Advertisements
Track Severe Weather on mobile